首页
METAR-TAF:

METAR-TAF

机场 :

沙托鲁, 法国

纬度: 46-51N, 经度: 001-43E, 海拔: 160米

当前天气观测

该预报发布于29分钟前的22:00 UTC
风速10节,风向南转西南
温度 13°C
湿度 82%
气压 1015 hPa
能见度10公里或以上
少量云层高于2700英尺
多云层高于12000英尺
阴天层高于15000英尺

METAR: LFLX 152200Z AUTO 20010KT 9999 FEW027 BKN120 OVC150 13/10 Q1015 NOSIG

时间: 00:29 (22:29 UTC)

预报

该预报发布于5小时和29分钟前的17:00 UTC
预报有效从15日的 18点(UTC)到 16日的 24点(UTC)
风速10节,风向西转西南
能见度10公里或以上
1500米以下无云,无积雨云
短暂存在
从 16日的 09点(UTC)到 16日的 15点(UTC)
风速10节,风向南转西南,有时为20节阵风
短暂存在
从 16日的 11点(UTC)到 16日的 24点(UTC)
多云层高于3500英尺
小雨

TAF: LFLX 151700Z 1518/1624 24010KT CAVOK TEMPO 1609/1615 21010G20KT TEMPO 1611/1624 -RA BKN035

超过4000个机场的气象观测和天气预报(METAR&TAF报告)。

可查询的气象台以黄色和红色小点在地图上表示。

将鼠标移到小点上方,可查看气象台名称。

然后点击查看天气观测和预报。

如需切换地图:点击带黑十字的绿色按钮放大地图;点击带横线的绿色按钮缩小地图;或者点击绿色箭头查看邻近地区的地图。


METAR-TAF: